createdAt,value
2023-02-12T00:00:12.363Z,9.40
2023-02-12T00:04:13.488Z,10.30
2023-02-12T00:08:15.538Z,10.20
2023-02-12T00:12:16.706Z,10.50
2023-02-12T00:16:21.285Z,10.60
2023-02-12T00:20:22.389Z,10.80
2023-02-12T00:24:23.502Z,10.80
2023-02-12T00:28:24.853Z,10.30
2023-02-12T00:32:25.852Z,10.30
2023-02-12T00:36:30.160Z,10.20
2023-02-12T00:40:31.250Z,10.30
2023-02-12T00:44:32.885Z,9.30
2023-02-12T00:48:34.910Z,9.90
2023-02-12T00:52:36.005Z,9.60
2023-02-12T00:56:37.213Z,9.30
2023-02-12T01:00:38.472Z,9.00
2023-02-12T01:04:39.655Z,10.30
2023-02-12T01:08:40.764Z,9.80
2023-02-12T01:12:41.856Z,10.00
2023-02-12T01:16:43.109Z,10.50
2023-02-12T01:20:44.072Z,10.30
2023-02-12T01:24:45.194Z,10.30
2023-02-12T01:28:49.921Z,9.40
2023-02-12T01:32:51.244Z,10.00
2023-02-12T01:36:52.171Z,10.20
2023-02-12T01:40:53.251Z,10.10
2023-02-12T01:45:16.335Z,10.20
2023-02-12T01:49:21.224Z,10.10
2023-02-12T01:53:24.840Z,10.00
2023-02-12T01:57:29.639Z,10.40
2023-02-12T02:01:33.552Z,10.10
2023-02-12T02:05:53.818Z,10.00
2023-02-12T02:09:56.415Z,10.40
2023-02-12T02:14:15.797Z,9.90
2023-02-12T02:18:23.726Z,10.30
2023-02-12T02:22:40.872Z,9.90
2023-02-12T02:26:51.634Z,9.40
2023-02-12T02:30:59.666Z,9.20
2023-02-12T02:35:13.603Z,10.10
2023-02-12T02:39:24.525Z,10.50
2023-02-12T02:43:32.209Z,10.80
2023-02-12T02:47:54.521Z,11.00
2023-02-12T02:51:59.303Z,10.20
2023-02-12T02:56:03.503Z,9.90
2023-02-12T03:00:08.512Z,9.80
2023-02-12T03:04:16.486Z,9.30
2023-02-12T03:08:24.652Z,8.90
2023-02-12T03:12:29.412Z,8.50
2023-02-12T03:16:34.056Z,9.00
2023-02-12T03:20:38.997Z,10.20
2023-02-12T03:24:46.466Z,9.80
2023-02-12T03:28:47.690Z,10.50
2023-02-12T03:32:58.523Z,10.70
2023-02-12T03:37:06.325Z,10.70
2023-02-12T03:41:23.150Z,10.90
2023-02-12T03:45:39.993Z,11.10
2023-02-12T03:49:53.303Z,11.20
2023-02-12T03:53:56.032Z,11.10
2023-02-12T03:58:00.993Z,11.20
2023-02-12T04:02:02.089Z,11.20
2023-02-12T04:06:03.750Z,11.00
2023-02-12T04:10:05.865Z,11.20
2023-02-12T04:14:41.217Z,11.10
2023-02-12T04:18:44.594Z,11.00
2023-02-12T04:23:22.677Z,11.00
2023-02-12T04:27:27.605Z,11.20
2023-02-12T04:31:44.636Z,11.30
2023-02-12T04:35:52.207Z,11.20
2023-02-12T04:39:53.913Z,11.30
2023-02-12T04:43:55.059Z,11.10
2023-02-12T04:47:57.130Z,11.40
2023-02-12T04:51:58.343Z,11.20
2023-02-12T04:55:59.321Z,11.00
2023-02-12T05:00:00.568Z,10.60
2023-02-12T05:04:02.015Z,11.10
2023-02-12T05:08:03.108Z,11.30
2023-02-12T05:12:04.890Z,11.30
2023-02-12T05:16:07.362Z,11.10
2023-02-12T05:20:09.746Z,11.00
2023-02-12T05:24:10.728Z,9.60
2023-02-12T05:28:11.714Z,9.20
2023-02-12T05:32:12.897Z,8.20
2023-02-12T05:36:16.233Z,9.10
2023-02-12T05:40:17.480Z,9.90
2023-02-12T05:44:18.662Z,10.30
2023-02-12T05:48:19.773Z,10.30
2023-02-12T05:52:20.946Z,10.40
2023-02-12T05:56:24.552Z,10.30
2023-02-12T06:00:25.936Z,10.00
2023-02-12T06:04:28.424Z,9.60
2023-02-12T06:08:29.766Z,9.90
2023-02-12T06:12:30.900Z,9.40
2023-02-12T06:16:32.745Z,8.90
2023-02-12T06:20:33.775Z,9.20
2023-02-12T06:24:36.612Z,9.80
2023-02-12T06:28:37.911Z,9.50
2023-02-12T06:32:39.058Z,10.00
2023-02-12T06:36:43.983Z,10.30
2023-02-12T06:40:44.944Z,10.50
2023-02-12T06:44:47.200Z,10.40
2023-02-12T06:48:48.222Z,10.50
2023-02-12T06:52:49.200Z,10.60
2023-02-12T06:56:51.801Z,10.60
2023-02-12T07:00:52.823Z,10.80
2023-02-12T07:04:53.851Z,10.80
2023-02-12T07:08:55.855Z,10.70
2023-02-12T07:12:56.963Z,10.40
2023-02-12T07:16:58.101Z,10.60
2023-02-12T07:20:59.066Z,10.50
2023-02-12T07:25:00.232Z,10.30
2023-02-12T07:29:01.340Z,10.60
2023-02-12T07:33:03.305Z,10.60
2023-02-12T07:37:05.014Z,10.80
2023-02-12T07:41:14.815Z,10.30
2023-02-12T07:45:16.211Z,10.20
2023-02-12T07:49:21.944Z,10.30
2023-02-12T07:53:23.203Z,10.20
2023-02-12T07:57:24.333Z,10.30
2023-02-12T08:01:33.438Z,9.00
2023-02-12T08:05:34.937Z,8.10
2023-02-12T08:09:36.158Z,8.80
2023-02-12T08:13:37.843Z,9.20
2023-02-12T08:17:38.960Z,8.80
2023-02-12T08:21:40.463Z,9.50
2023-02-12T08:25:41.417Z,9.70
2023-02-12T08:29:44.292Z,10.10
2023-02-12T08:33:46.341Z,10.40
2023-02-12T08:37:47.448Z,9.30
2023-02-12T08:41:48.877Z,10.60
2023-02-12T08:45:49.880Z,11.30
2023-02-12T08:49:50.929Z,11.10
2023-02-12T08:53:55.681Z,11.90
2023-02-12T08:57:57.649Z,12.30
2023-02-12T09:01:59.776Z,12.40
2023-02-12T09:06:05.421Z,12.30
2023-02-12T09:10:07.463Z,12.60
2023-02-12T09:14:12.265Z,12.90
2023-02-12T09:18:14.559Z,13.40
2023-02-12T09:22:15.628Z,13.40
2023-02-12T09:26:21.770Z,13.50
2023-02-12T09:30:22.865Z,12.70
2023-02-12T09:34:23.806Z,11.50
2023-02-12T09:38:24.766Z,12.30
2023-02-12T09:42:38.647Z,12.70
2023-02-12T09:47:04.565Z,12.90
2023-02-12T09:51:08.845Z,13.30
2023-02-12T09:55:17.656Z,12.70
2023-02-12T09:59:29.075Z,13.50
2023-02-12T10:03:30.711Z,13.80
2023-02-12T10:07:44.268Z,13.60
2023-02-12T10:12:16.136Z,13.50
2023-02-12T10:16:38.823Z,14.00
2023-02-12T10:21:09.165Z,14.30
2023-02-12T10:25:17.856Z,14.10
2023-02-12T10:29:22.719Z,14.20
2023-02-12T10:33:34.574Z,14.30
2023-02-12T10:37:59.148Z,14.00
2023-02-12T10:42:15.741Z,13.90
2023-02-12T10:46:17.625Z,11.80
2023-02-12T10:50:40.832Z,11.60
2023-02-12T10:54:48.728Z,11.90
2023-02-12T10:58:59.379Z,12.50
2023-02-12T11:03:06.990Z,12.50
2023-02-12T11:07:09.296Z,11.70
2023-02-12T11:11:31.171Z,10.80
2023-02-12T11:15:45.442Z,11.20
2023-02-12T11:19:50.170Z,12.40
2023-02-12T11:23:51.352Z,10.90
2023-02-12T11:28:08.470Z,11.50
2023-02-12T11:32:18.862Z,10.90
2023-02-12T11:36:25.451Z,11.30
2023-02-12T11:40:29.117Z,11.50
2023-02-12T11:44:34.120Z,11.10
2023-02-12T11:48:39.045Z,11.30
2023-02-12T11:52:40.827Z,11.50
2023-02-12T11:56:46.032Z,12.20
2023-02-12T12:00:57.039Z,11.60
2023-02-12T12:05:02.052Z,10.80
2023-02-12T12:09:26.183Z,10.90
2023-02-12T12:13:33.768Z,11.20
2023-02-12T12:18:14.985Z,11.20
2023-02-12T12:22:28.820Z,12.00
2023-02-12T12:26:33.826Z,10.50
2023-02-12T12:30:55.151Z,11.30
2023-02-12T12:34:56.186Z,10.80
2023-02-12T12:39:18.401Z,10.50
2023-02-12T12:43:32.613Z,10.80
2023-02-12T12:47:40.350Z,11.10
2023-02-12T12:52:00.431Z,10.60
2023-02-12T12:56:14.457Z,10.80
2023-02-12T13:00:40.566Z,10.60
2023-02-12T13:05:01.060Z,11.20
2023-02-12T13:09:12.231Z,11.40
2023-02-12T13:13:35.414Z,10.70
2023-02-12T13:17:40.863Z,11.90
2023-02-12T13:22:09.650Z,10.90
2023-02-12T13:26:17.359Z,10.30
2023-02-12T13:30:22.267Z,10.50
2023-02-12T13:34:27.831Z,9.80
2023-02-12T13:38:32.776Z,9.70
2023-02-12T13:42:40.384Z,9.50
2023-02-12T13:46:51.045Z,9.40
2023-02-12T13:51:02.058Z,9.20
2023-02-12T13:55:27.398Z,9.00
2023-02-12T13:59:35.216Z,8.60
2023-02-12T14:03:37.848Z,8.40
2023-02-12T14:07:45.903Z,8.70
2023-02-12T14:11:51.818Z,8.20
2023-02-12T14:15:55.668Z,8.60
2023-02-12T14:20:12.656Z,8.50
2023-02-12T14:24:38.461Z,8.10
2023-02-12T14:28:55.180Z,8.70
2023-02-12T14:32:58.723Z,9.00
2023-02-12T14:37:17.842Z,8.60
2023-02-12T14:41:36.667Z,8.90
2023-02-12T14:45:37.913Z,8.50
2023-02-12T14:49:48.805Z,8.50
2023-02-12T14:53:51.855Z,8.90
2023-02-12T14:58:02.465Z,9.10
2023-02-12T15:02:05.672Z,9.10
2023-02-12T15:06:16.520Z,8.90
2023-02-12T15:10:31.463Z,8.60
2023-02-12T15:14:35.935Z,9.20
2023-02-12T15:18:49.743Z,9.60
2023-02-12T15:22:51.232Z,9.60
2023-02-12T15:26:54.557Z,9.50
2023-02-12T15:30:56.658Z,9.00
2023-02-12T15:34:58.134Z,8.90
2023-02-12T15:39:05.472Z,8.50
2023-02-12T15:43:10.619Z,8.20
2023-02-12T15:47:14.595Z,8.20
2023-02-12T15:51:37.793Z,8.60
2023-02-12T15:55:41.923Z,9.70
2023-02-12T15:59:43.157Z,10.10
2023-02-12T16:03:51.125Z,8.60
2023-02-12T16:07:52.676Z,8.40
2023-02-12T16:11:55.427Z,9.30
2023-02-12T16:16:15.592Z,8.40
2023-02-12T16:20:21.186Z,8.40
2023-02-12T16:24:29.290Z,8.50
2023-02-12T16:28:31.830Z,8.30
2023-02-12T16:32:38.856Z,8.80
2023-02-12T16:36:43.864Z,9.00
2023-02-12T16:40:49.050Z,9.20
2023-02-12T16:44:51.117Z,11.00
2023-02-12T16:48:53.912Z,11.40
2023-02-12T16:53:03.578Z,11.00
2023-02-12T16:57:04.902Z,11.50
2023-02-12T17:01:06.698Z,11.50
2023-02-12T17:05:10.008Z,10.80
2023-02-12T17:09:11.130Z,11.10
2023-02-12T17:13:12.730Z,9.80
2023-02-12T17:17:14.340Z,9.40
2023-02-12T17:21:24.383Z,9.20
2023-02-12T17:25:25.956Z,8.60
2023-02-12T17:29:27.850Z,8.30
2023-02-12T17:33:28.964Z,8.80
2023-02-12T17:37:30.080Z,8.50
2023-02-12T17:41:31.720Z,8.20
2023-02-12T17:45:33.872Z,8.20
2023-02-12T17:49:35.356Z,8.90
2023-02-12T17:53:37.745Z,8.80
2023-02-12T17:57:39.424Z,8.30
2023-02-12T18:01:40.490Z,8.60
2023-02-12T18:05:42.531Z,8.50
2023-02-12T18:09:43.745Z,9.30
2023-02-12T18:13:45.707Z,9.30
2023-02-12T18:17:46.909Z,8.80
2023-02-12T18:21:48.206Z,8.80
2023-02-12T18:25:49.169Z,9.50
2023-02-12T18:29:51.690Z,8.80
2023-02-12T18:33:53.113Z,9.00
2023-02-12T18:37:54.276Z,9.20
2023-02-12T18:41:56.332Z,8.90
2023-02-12T18:45:57.520Z,8.40
2023-02-12T18:49:58.609Z,8.70
2023-02-12T18:54:02.245Z,8.90
2023-02-12T18:58:03.612Z,8.80
2023-02-12T19:02:05.595Z,10.50
2023-02-12T19:06:06.924Z,10.90
2023-02-12T19:10:08.836Z,9.20
2023-02-12T19:14:10.052Z,8.40
2023-02-12T19:18:11.636Z,8.50
2023-02-12T19:22:12.927Z,8.70
2023-02-12T19:26:15.587Z,9.20
2023-02-12T19:30:16.871Z,8.80
2023-02-12T19:34:20.556Z,9.30
2023-02-12T19:38:22.142Z,9.20
2023-02-12T19:42:24.552Z,9.50
2023-02-12T19:46:28.851Z,8.90
2023-02-12T19:50:30.397Z,8.30
2023-02-12T19:54:31.702Z,8.00
2023-02-12T19:58:33.151Z,7.80
2023-02-12T20:02:34.185Z,7.40
2023-02-12T20:06:36.930Z,7.70
2023-02-12T20:10:39.819Z,7.60
2023-02-12T20:14:41.117Z,7.70
2023-02-12T20:18:44.269Z,7.60
2023-02-12T20:22:45.687Z,7.60
2023-02-12T20:26:47.369Z,8.00
2023-02-12T20:30:48.940Z,8.10
2023-02-12T20:34:51.806Z,8.50
2023-02-12T20:38:55.409Z,7.60
2023-02-12T20:42:57.123Z,7.30
2023-02-12T20:46:58.090Z,7.10
2023-02-12T20:51:04.603Z,7.20
2023-02-12T20:55:08.321Z,7.10
2023-02-12T20:59:11.202Z,7.10
2023-02-12T21:03:12.324Z,7.70
2023-02-12T21:07:13.377Z,7.60
2023-02-12T21:11:17.666Z,7.30
2023-02-12T21:15:18.850Z,7.50
2023-02-12T21:19:20.995Z,7.50
2023-02-12T21:23:22.574Z,7.60
2023-02-12T21:27:23.662Z,8.00
2023-02-12T21:31:30.393Z,7.80
2023-02-12T21:35:33.869Z,7.50
2023-02-12T21:39:34.883Z,7.60
2023-02-12T21:43:37.149Z,7.50
2023-02-12T21:47:38.281Z,7.90
2023-02-12T21:51:41.836Z,8.30
2023-02-12T21:55:42.982Z,9.60
2023-02-12T21:59:43.958Z,9.10
2023-02-12T22:03:45.556Z,9.50
2023-02-12T22:07:50.309Z,8.90
2023-02-12T22:11:51.848Z,9.20
2023-02-12T22:15:53.292Z,10.40
2023-02-12T22:19:54.281Z,10.40
2023-02-12T22:23:56.091Z,9.50
2023-02-12T22:27:57.210Z,9.10
2023-02-12T22:31:58.235Z,8.90
2023-02-12T22:36:07.991Z,9.50
2023-02-12T22:40:10.112Z,9.90
2023-02-12T22:44:12.790Z,9.90
2023-02-12T22:48:13.915Z,9.10
2023-02-12T22:52:14.910Z,9.50
2023-02-12T22:56:16.684Z,10.30
2023-02-12T23:00:18.691Z,10.70
2023-02-12T23:04:20.059Z,9.70
2023-02-12T23:08:21.221Z,10.30
2023-02-12T23:12:22.197Z,9.70
2023-02-12T23:16:24.143Z,10.30
2023-02-12T23:20:25.272Z,8.20
2023-02-12T23:24:26.421Z,8.50
2023-02-12T23:28:27.896Z,9.60
2023-02-12T23:32:29.043Z,10.10
2023-02-12T23:36:30.212Z,9.90
2023-02-12T23:40:32.907Z,9.40
2023-02-12T23:44:34.146Z,9.40
2023-02-12T23:48:35.203Z,8.90
2023-02-12T23:52:36.781Z,9.80
2023-02-12T23:56:38.222Z,9.40
